Time;durP1;ratioP1;P1;durP2;ratioP2;P2;SDS_P1;SDS_P2;PMS_P1;PMS_P2;Temp;Humidity;BMP_temperature;BMP_pressure;BME280_temperature;BME280_humidity;BME280_pressure;Samples;Min_cycle;Max_cycle;Signal;HPM_P1;HPM_P2
2024/01/21 00:00:29;;;;;;;15.20;6.22;;;;;;;-2.84;60.80;97805.66;6282999;22;20054;-84
2024/01/21 00:02:57;;;;;;;11.77;6.82;;;;;;;-2.83;61.08;97802.22;6281463;22;20016;-85
2024/01/21 00:05:24;;;;;;;8.38;6.18;;;;;;;-2.83;60.84;97795.38;6284863;22;20087;-85
2024/01/21 00:07:52;;;;;;;11.32;6.15;;;;;;;-2.80;60.80;97791.88;6283483;22;20023;-85
2024/01/21 00:10:20;;;;;;;10.70;6.13;;;;;;;-2.77;61.16;97791.75;6282993;22;20050;-83
2024/01/21 00:12:47;;;;;;;9.88;5.97;;;;;;;-2.75;60.68;97787.41;6283477;22;20023;-84
2024/01/21 00:15:15;;;;;;;12.65;5.90;;;;;;;-2.76;60.40;97789.09;6284550;22;20055;-87
2024/01/21 00:17:44;;;;;;;9.85;6.47;;;;;;;-2.78;60.90;97770.47;6282900;22;20022;-84
2024/01/21 00:20:12;;;;;;;8.50;5.75;;;;;;;-2.76;60.50;97775.50;6283629;22;20015;-83
2024/01/21 00:22:43;;;;;;;8.90;6.15;;;;;;;-2.77;60.40;97778.97;6284696;22;20030;-84
2024/01/21 00:25:10;;;;;;;9.02;6.18;;;;;;;-2.77;60.63;97778.97;6284820;22;20051;-84
2024/01/21 00:27:39;;;;;;;9.68;5.93;;;;;;;-2.77;60.43;97771.31;6283958;22;20022;-84
2024/01/21 00:30:08;;;;;;;8.25;5.93;;;;;;;-2.78;60.76;97774.75;6283159;22;20046;-85
2024/01/21 00:32:36;;;;;;;7.30;5.13;;;;;;;-2.78;60.35;97774.75;6283115;22;20038;-83
2024/01/21 00:35:06;;;;;;;7.57;5.70;;;;;;;-2.77;60.29;97777.25;6284281;22;20020;-84
2024/01/21 00:37:34;;;;;;;8.63;6.13;;;;;;;-2.73;60.41;97777.94;6282631;22;20069;-83
2024/01/21 00:40:01;;;;;;;9.00;5.97;;;;;;;-2.71;60.56;97771.03;6278681;22;20102;-83
2024/01/21 00:42:29;;;;;;;8.02;5.82;;;;;;;-2.70;60.18;97758.19;6282624;22;20020;-83
2024/01/21 00:45:02;;;;;;;9.65;5.90;;;;;;;-2.68;60.26;97753.00;6280847;22;20016;-82
2024/01/21 00:47:30;;;;;;;9.00;5.95;;;;;;;-2.66;60.23;97747.84;6284518;22;20458;-85
2024/01/21 00:49:58;;;;;;;11.52;5.70;;;;;;;-2.62;60.34;97739.13;6278654;22;20353;-84
2024/01/21 00:52:27;;;;;;;8.13;5.97;;;;;;;-2.59;60.44;97742.34;6279950;22;20069;-83
2024/01/21 00:54:54;;;;;;;9.32;5.65;;;;;;;-2.58;60.38;97740.63;6279041;22;20465;-84
2024/01/21 00:57:22;;;;;;;11.00;5.63;;;;;;;-2.56;60.05;97744.78;6278548;22;20055;-83
2024/01/21 00:59:50;;;;;;;8.50;5.68;;;;;;;-2.56;59.99;97742.22;6279587;22;20356;-84
2024/01/21 01:02:18;;;;;;;8.20;5.65;;;;;;;-2.56;59.87;97747.34;6283578;22;20122;-85
2024/01/21 01:04:48;;;;;;;8.32;5.40;;;;;;;-2.54;59.91;97755.72;6284797;22;20106;-87
2024/01/21 01:07:16;;;;;;;8.43;5.72;;;;;;;-2.50;59.59;97764.91;6286051;22;20027;-84
2024/01/21 01:09:46;;;;;;;8.20;6.35;;;;;;;-2.51;59.51;97770.13;6285461;22;20016;-89
2024/01/21 01:12:15;;;;;;;9.50;6.03;;;;;;;-2.50;60.08;97770.00;6285638;22;20024;-83
2024/01/21 01:14:43;;;;;;;8.05;5.90;;;;;;;-2.46;59.80;97770.72;6301527;22;20030;-86
2024/01/21 01:17:12;;;;;;;11.00;6.18;;;;;;;-2.44;60.10;97770.66;6300296;22;20020;-88
2024/01/21 01:19:39;;;;;;;9.25;5.82;;;;;;;-2.41;60.54;97770.50;6293132;22;20023;-88
2024/01/21 01:22:07;;;;;;;8.73;5.78;;;;;;;-2.39;60.18;97771.25;6286140;22;20023;-83
2024/01/21 01:24:35;;;;;;;8.32;5.80;;;;;;;-2.36;59.93;97765.97;6282605;22;20050;-83
2024/01/21 01:27:04;;;;;;;10.43;5.97;;;;;;;-2.38;59.02;97762.69;6278398;22;20365;-83
2024/01/21 01:29:32;;;;;;;8.43;6.13;;;;;;;-2.39;59.57;97751.63;6277614;22;20050;-83
2024/01/21 01:31:59;;;;;;;7.10;5.15;;;;;;;-2.38;59.83;97762.69;6278337;22;20415;-83
2024/01/21 01:34:27;;;;;;;8.23;5.70;;;;;;;-2.37;59.83;97754.94;6293565;22;20023;-86
2024/01/21 01:36:54;;;;;;;11.75;5.72;;;;;;;-2.33;60.65;97745.41;6298468;22;20054;-86
2024/01/21 01:39:22;;;;;;;9.93;5.72;;;;;;;-2.27;60.02;97755.34;6297745;22;20053;-83
2024/01/21 01:41:50;;;;;;;8.70;5.47;;;;;;;-2.26;59.52;97751.88;6289199;22;20194;-83
2024/01/21 01:44:19;;;;;;;6.80;5.38;;;;;;;-2.29;59.96;97736.69;6282542;22;20046;-84
2024/01/21 01:46:47;;;;;;;9.43;5.50;;;;;;;-2.31;59.54;97746.16;6280983;22;20023;-84
2024/01/21 01:49:15;;;;;;;8.68;6.10;;;;;;;-2.34;59.40;97733.50;6280302;22;20513;-83
2024/01/21 01:51:44;;;;;;;8.00;5.68;;;;;;;-2.34;59.46;97738.63;6280588;22;20055;-84
2024/01/21 01:54:12;;;;;;;6.80;5.40;;;;;;;-2.37;59.40;97731.13;6280955;22;20030;-84
2024/01/21 01:56:40;;;;;;;9.93;6.63;;;;;;;-2.37;59.77;97733.69;6281089;22;20024;-83
2024/01/21 01:59:11;;;;;;;9.27;6.32;;;;;;;-2.38;59.23;97732.03;6281105;22;20024;-83
2024/01/21 02:01:40;;;;;;;9.07;6.22;;;;;;;-2.41;59.35;97729.59;6279291;22;20019;-85
2024/01/21 02:04:09;;;;;;;6.40;5.78;;;;;;;-2.43;59.22;97726.28;6277547;22;20353;-83
2024/01/21 02:06:37;;;;;;;8.27;5.82;;;;;;;-2.48;59.13;97721.41;6278306;22;20019;-85
2024/01/21 02:09:05;;;;;;;9.05;5.60;;;;;;;-2.53;59.22;97728.47;6280979;22;20560;-82
2024/01/21 02:11:33;;;;;;;10.50;6.50;;;;;;;-2.54;59.49;97731.91;6280649;22;20020;-84
2024/01/21 02:14:01;;;;;;;8.77;5.70;;;;;;;-2.57;59.54;97722.69;6279671;22;20031;-85
2024/01/21 02:16:28;;;;;;;8.73;6.32;;;;;;;-2.57;59.83;97730.34;6280510;22;20054;-82
2024/01/21 02:18:58;;;;;;;9.88;6.85;;;;;;;-2.58;60.04;97728.69;6279709;22;20397;-83
2024/01/21 02:21:26;;;;;;;9.95;6.72;;;;;;;-2.60;59.99;97725.38;6280416;22;20081;-83
2024/01/21 02:23:55;;;;;;;14.70;6.65;;;;;;;-2.65;59.84;97729.88;6280062;22;20016;-84
2024/01/21 02:26:23;;;;;;;8.32;5.82;;;;;;;-2.68;59.87;97724.91;6281510;22;20050;-84
2024/01/21 02:28:51;;;;;;;11.82;7.22;;;;;;;-2.70;60.77;97711.38;6281431;22;20571;-84
2024/01/21 02:31:18;;;;;;;8.90;6.10;;;;;;;-2.69;60.58;97723.25;6280759;22;20035;-83
2024/01/21 02:33:46;;;;;;;10.02;7.43;;;;;;;-2.65;61.60;97729.03;6280424;22;20024;-84
2024/01/21 02:36:13;;;;;;;10.02;7.18;;;;;;;-2.62;60.98;97718.69;6280443;22;20496;-84
2024/01/21 02:38:41;;;;;;;10.57;7.20;;;;;;;-2.61;61.12;97716.06;6279699;22;20066;-83
2024/01/21 02:41:10;;;;;;;10.52;7.68;;;;;;;-2.63;61.12;97711.91;6278674;22;20022;-84
2024/01/21 02:43:38;;;;;;;12.02;8.13;;;;;;;-2.65;61.51;97722.19;6279824;22;20054;-83
2024/01/21 02:46:05;;;;;;;12.88;8.93;;;;;;;-2.68;61.23;97718.97;6281045;22;20098;-82
2024/01/21 02:48:33;;;;;;;12.93;7.15;;;;;;;-2.76;61.06;97716.78;6281828;22;20042;-84
2024/01/21 02:51:00;;;;;;;10.75;7.57;;;;;;;-2.79;60.65;97716.94;6282876;22;20020;-84
2024/01/21 02:53:28;;;;;;;10.85;7.57;;;;;;;-2.81;61.30;97716.16;6282546;22;20012;-82
2024/01/21 02:55:56;;;;;;;12.63;7.72;;;;;;;-2.82;61.44;97715.34;6283425;22;20020;-83
2024/01/21 02:58:25;;;;;;;12.73;8.82;;;;;;;-2.85;61.25;97712.09;6277208;22;20062;-84
2024/01/21 03:00:52;;;;;;;8.90;7.53;;;;;;;-2.91;61.59;97703.84;6280994;22;20050;-85
2024/01/21 03:03:20;;;;;;;11.43;8.85;;;;;;;-2.93;61.56;97715.00;6281670;22;20031;-84
2024/01/21 03:05:47;;;;;;;9.90;7.95;;;;;;;-3.01;61.48;97707.69;6284056;22;20063;-83
2024/01/21 03:08:15;;;;;;;12.70;8.77;;;;;;;-3.05;61.65;97708.72;6285066;22;20024;-83
2024/01/21 03:10:43;;;;;;;13.80;8.90;;;;;;;-3.04;61.50;97694.25;6284882;22;20481;-84
2024/01/21 03:13:10;;;;;;;13.35;8.75;;;;;;;-3.05;62.11;97701.06;6283063;22;20016;-83
2024/01/21 03:15:39;;;;;;;11.52;8.45;;;;;;;-3.06;61.76;97704.53;6285490;22;20046;-85
2024/01/21 03:18:07;;;;;;;11.77;8.32;;;;;;;-3.07;62.03;97705.41;6284548;22;20446;-83
2024/01/21 03:20:34;;;;;;;12.85;8.88;;;;;;;-3.10;61.86;97703.03;6284623;22;20334;-85
2024/01/21 03:23:02;;;;;;;12.82;8.25;;;;;;;-3.11;61.88;97706.47;6295109;22;20055;-88
2024/01/21 03:25:30;;;;;;;13.63;8.77;;;;;;;-3.10;62.19;97710.69;6295864;22;20026;-86
2024/01/21 03:27:57;;;;;;;13.60;8.30;;;;;;;-3.07;62.45;97707.16;6295586;22;20046;-87
2024/01/21 03:30:26;;;;;;;12.63;9.13;;;;;;;-3.11;61.98;97701.34;6295446;22;20333;-86
2024/01/21 03:32:55;;;;;;;12.25;8.60;;;;;;;-3.14;61.75;97696.41;6292963;22;20031;-87
2024/01/21 03:35:23;;;;;;;15.00;9.07;;;;;;;-3.16;61.76;97683.69;6292294;22;20019;-85
2024/01/21 03:37:50;;;;;;;11.52;8.05;;;;;;;-3.16;62.20;97688.81;6290538;22;20050;-84
2024/01/21 03:40:18;;;;;;;13.32;8.07;;;;;;;-3.15;62.00;97684.53;6290788;22;20046;-86
2024/01/21 03:42:47;;;;;;;10.77;7.95;;;;;;;-3.15;62.09;97677.72;6288763;22;20050;-84
2024/01/21 03:45:15;;;;;;;11.80;8.02;;;;;;;-3.15;61.90;97661.53;6286684;22;20046;-84
2024/01/21 03:47:43;;;;;;;9.20;7.28;;;;;;;-3.16;61.38;97665.00;6289993;22;20015;-85
2024/01/21 03:50:12;;;;;;;11.18;7.78;;;;;;;-3.16;61.24;97654.81;6288173;22;20099;-85
2024/01/21 03:52:39;;;;;;;10.27;7.30;;;;;;;-3.17;60.82;97659.09;6288592;22;20075;-84
2024/01/21 03:55:08;;;;;;;10.75;7.13;;;;;;;-3.18;61.13;97654.88;6288545;22;20023;-82
2024/01/21 03:57:36;;;;;;;10.65;6.80;;;;;;;-3.16;61.04;97654.81;6288930;22;20034;-83
2024/01/21 04:00:04;;;;;;;11.43;7.07;;;;;;;-3.14;61.16;97651.28;6289215;22;20182;-86
2024/01/21 04:02:31;;;;;;;9.82;7.43;;;;;;;-3.11;60.70;97657.97;6288098;22;20378;-83
2024/01/21 04:04:59;;;;;;;15.75;8.25;;;;;;;-3.11;61.09;97657.97;6289157;22;20024;-86
2024/01/21 04:07:28;;;;;;;14.75;8.77;;;;;;;-3.12;60.95;97663.97;6289887;22;20023;-85
2024/01/21 04:09:56;;;;;;;14.30;9.65;;;;;;;-3.18;61.04;97657.41;6287558;22;20046;-84
2024/01/21 04:12:23;;;;;;;16.55;9.93;;;;;;;-3.23;61.54;97664.47;6288545;22;20070;-85
2024/01/21 04:14:51;;;;;;;13.52;9.70;;;;;;;-3.25;61.85;97668.81;6289224;22;20024;-85
2024/01/21 04:17:20;;;;;;;16.20;10.00;;;;;;;-3.26;62.11;97673.97;6289424;22;20054;-87
2024/01/21 04:19:47;;;;;;;15.68;11.35;;;;;;;-3.26;62.20;97666.31;6289096;22;20012;-87
2024/01/21 04:22:16;;;;;;;22.52;11.10;;;;;;;-3.26;62.33;97702.03;6289803;22;20028;-86
2024/01/21 04:24:45;;;;;;;15.48;11.73;;;;;;;-3.31;62.88;97703.06;6288812;22;20023;-85
2024/01/21 04:27:12;;;;;;;14.90;10.80;;;;;;;-3.35;63.19;97703.28;6289541;22;20046;-84
2024/01/21 04:29:40;;;;;;;16.92;12.25;;;;;;;-3.44;63.32;97694.31;6290592;22;20015;-83
2024/01/21 04:32:08;;;;;;;18.02;12.02;;;;;;;-3.53;63.23;97697.28;6287059;22;20087;-84
2024/01/21 04:34:36;;;;;;;21.50;11.55;;;;;;;-3.59;63.37;97697.53;6286848;22;20034;-85
2024/01/21 04:37:04;;;;;;;16.10;11.85;;;;;;;-3.67;63.47;97686.84;6289607;22;20020;-85
2024/01/21 04:39:31;;;;;;;17.70;12.00;;;;;;;-3.70;64.22;97686.97;6287944;22;20020;-85
2024/01/21 04:42:01;;;;;;;14.65;10.50;;;;;;;-3.73;64.32;97678.56;6285436;22;20078;-84
2024/01/21 04:44:28;;;;;;;16.00;11.95;;;;;;;-3.76;64.29;97677.88;6284374;22;20020;-85
2024/01/21 04:46:56;;;;;;;19.55;11.85;;;;;;;-3.78;64.26;97664.38;6288445;22;20079;-83
2024/01/21 04:49:23;;;;;;;19.27;12.23;;;;;;;-3.83;64.44;97662.00;6286894;22;20066;-84
2024/01/21 04:51:52;;;;;;;17.70;11.65;;;;;;;-3.84;64.47;97664.66;6288708;22;20031;-86
2024/01/21 04:54:19;;;;;;;20.13;12.90;;;;;;;-3.87;64.49;97660.50;6287507;22;20079;-86
2024/01/21 04:56:47;;;;;;;15.93;11.57;;;;;;;-3.88;64.67;97651.19;6288037;22;20023;-85
2024/01/21 04:59:16;;;;;;;19.35;13.85;;;;;;;-3.88;64.69;97653.75;6287483;22;20053;-85
2024/01/21 05:01:44;;;;;;;15.90;11.63;;;;;;;-3.87;64.55;97645.22;6302378;22;20027;-86
2024/01/21 05:04:11;;;;;;;18.10;12.20;;;;;;;-3.88;64.79;97648.66;6303056;22;20008;-85
2024/01/21 05:06:39;;;;;;;21.00;13.05;;;;;;;-3.89;65.07;97644.47;6303594;22;20031;-84
2024/01/21 05:09:07;;;;;;;18.50;12.15;;;;;;;-3.95;64.87;97652.34;6289115;22;20035;-86
2024/01/21 05:11:34;;;;;;;18.65;12.15;;;;;;;-3.97;64.75;97646.50;6288584;22;20067;-83
2024/01/21 05:14:02;;;;;;;17.90;11.30;;;;;;;-4.00;65.27;97638.97;6287507;22;20098;-86
2024/01/21 05:16:31;;;;;;;16.65;12.60;;;;;;;-4.00;65.55;97644.06;6285673;22;20354;-85
2024/01/21 05:18:58;;;;;;;17.98;12.32;;;;;;;-4.01;65.88;97638.16;6287190;22;20405;-85
2024/01/21 05:21:26;;;;;;;18.40;13.30;;;;;;;-3.98;66.56;97632.09;6289069;22;20085;-86
2024/01/21 05:23:54;;;;;;;18.35;12.15;;;;;;;-3.96;66.54;97631.16;6289117;22;20020;-88
2024/01/21 05:26:22;;;;;;;16.70;12.02;;;;;;;-3.98;66.05;97630.38;6286764;22;20022;-87
2024/01/21 05:28:49;;;;;;;17.90;11.73;;;;;;;-3.97;66.14;97618.47;6287863;22;20058;-84
2024/01/21 05:31:17;;;;;;;17.05;11.95;;;;;;;-3.96;66.24;97620.09;6287624;22;20016;-87
2024/01/21 05:33:46;;;;;;;20.88;12.43;;;;;;;-3.95;66.82;97621.78;6289934;22;20080;-83
2024/01/21 05:36:15;;;;;;;18.98;12.45;;;;;;;-3.90;67.21;97624.13;6287065;22;20473;-88
2024/01/21 05:38:42;;;;;;;20.08;13.38;;;;;;;-3.87;67.17;97629.94;6287790;22;20073;-85
2024/01/21 05:41:13;;;;;;;21.13;13.15;;;;;;;-3.87;67.25;97624.81;6292976;22;20047;-84
2024/01/21 05:43:40;;;;;;;17.30;11.88;;;;;;;-3.85;66.83;97622.19;6299006;22;20011;-88
2024/01/21 05:46:07;;;;;;;19.90;13.27;;;;;;;-3.83;66.85;97617.84;6299424;22;20027;-88
2024/01/21 05:48:34;;;;;;;18.85;12.27;;;;;;;-3.80;66.79;97605.81;6293604;22;20031;-87
2024/01/21 05:51:04;;;;;;;17.85;12.07;;;;;;;-3.75;67.36;97608.16;6290879;22;20019;-86
2024/01/21 05:53:32;;;;;;;21.08;12.90;;;;;;;-3.69;67.23;97601.97;6291605;22;20016;-83
2024/01/21 05:56:00;;;;;;;17.50;11.75;;;;;;;-3.67;67.49;97600.13;6295632;22;20023;-88
2024/01/21 05:58:33;;;;;;;19.15;12.55;;;;;;;-3.66;66.76;97617.13;6295020;22;20015;-89
2024/01/21 06:01:01;;;;;;;18.38;12.88;;;;;;;-3.67;67.08;97616.28;6295565;22;20023;-88
2024/01/21 06:03:29;;;;;;;17.10;12.32;;;;;;;-3.66;66.36;97624.75;6294926;22;20118;-88
2024/01/21 06:05:59;;;;;;;19.98;13.50;;;;;;;-3.65;66.18;97634.91;6296871;22;20046;-88
2024/01/21 06:08:29;;;;;;;17.20;11.82;;;;;;;-3.63;66.26;97640.75;6295159;22;20024;-87
2024/01/21 06:10:57;;;;;;;20.23;13.77;;;;;;;-3.57;66.98;97668.53;6294561;22;20070;-87
2024/01/21 06:13:25;;;;;;;20.67;14.10;;;;;;;-3.49;67.56;97675.84;6293577;22;20051;-87
2024/01/21 06:15:54;;;;;;;22.50;13.68;;;;;;;-3.44;67.38;97681.56;6293922;22;20019;-87
2024/01/21 06:18:22;;;;;;;20.88;13.98;;;;;;;-3.39;67.41;97691.56;6292902;22;20020;-87
2024/01/21 06:20:51;;;;;;;23.30;14.70;;;;;;;-3.32;67.69;97687.84;6292787;22;20022;-88
2024/01/21 06:23:18;;;;;;;23.10;14.85;;;;;;;-3.27;67.47;97690.19;6293276;22;20020;-87
2024/01/21 06:25:49;;;;;;;24.73;14.23;;;;;;;-3.26;67.50;97694.38;6295967;22;20020;-88
2024/01/21 06:28:17;;;;;;;25.45;14.88;;;;;;;-3.22;66.91;97703.56;6301436;22;20015;-89
2024/01/21 06:30:46;;;;;;;22.33;15.25;;;;;;;-3.24;66.40;97705.34;6300946;22;20015;-87
2024/01/21 06:33:15;;;;;;;30.58;18.48;;;;;;;-3.28;66.28;97688.53;6299841;22;20051;-88
2024/01/21 06:35:44;;;;;;;23.20;15.55;;;;;;;-3.32;67.09;97703.97;6299375;22;20065;-87
2024/01/21 06:38:14;;;;;;;21.88;14.05;;;;;;;-3.36;66.74;97699.91;6298377;22;20019;-88
2024/01/21 06:40:42;;;;;;;26.17;15.38;;;;;;;-3.39;66.25;97719.63;6298424;22;20016;-86
2024/01/21 06:43:13;;;;;;;23.15;14.95;;;;;;;-3.44;65.68;97719.81;6298932;22;20038;-87
2024/01/21 06:45:41;;;;;;;23.98;14.80;;;;;;;-3.49;66.01;97720.94;6296118;22;20004;-90
2024/01/21 06:48:09;;;;;;;22.00;15.07;;;;;;;-3.50;66.28;97714.97;6297194;22;20024;-87
2024/01/21 06:50:38;;;;;;;23.08;14.80;;;;;;;-3.51;66.18;97713.34;6298588;22;20055;-86
2024/01/21 06:53:05;;;;;;;22.83;15.95;;;;;;;-3.50;66.78;97711.63;6298884;22;20015;-89
2024/01/21 06:55:36;;;;;;;22.92;14.15;;;;;;;-3.49;66.90;97709.00;6302924;22;20011;-87
2024/01/21 06:58:04;;;;;;;23.02;13.95;;;;;;;-3.54;65.69;97704.09;6303418;22;20027;-88
2024/01/21 07:00:33;;;;;;;26.48;15.25;;;;;;;-3.58;65.34;97711.97;6304020;22;20018;-89
2024/01/21 07:03:02;;;;;;;24.67;16.15;;;;;;;-3.66;65.86;97708.91;6303570;22;20010;-89
2024/01/21 07:05:30;;;;;;;26.23;15.25;;;;;;;-3.70;66.02;97708.19;6303648;22;20059;-88
2024/01/21 07:07:58;;;;;;;27.08;15.60;;;;;;;-3.71;66.41;97710.84;6303505;22;20003;-87
2024/01/21 07:10:26;;;;;;;25.27;15.20;;;;;;;-3.71;66.05;97719.31;6303576;22;20007;-90
2024/01/21 07:12:55;;;;;;;25.85;16.33;;;;;;;-3.71;65.84;97726.13;6303604;22;20015;-88
2024/01/21 07:15:24;;;;;;;33.80;19.42;;;;;;;-3.73;66.00;97711.72;6304070;22;20002;-88
2024/01/21 07:17:53;;;;;;;29.55;17.33;;;;;;;-3.74;66.42;97712.63;6303650;22;20059;-87
2024/01/21 07:20:21;;;;;;;29.38;17.25;;;;;;;-3.73;66.31;97714.28;6301482;22;20515;-89
2024/01/21 07:22:50;;;;;;;33.30;17.92;;;;;;;-3.71;66.40;97718.50;6300264;22;20046;-89
2024/01/21 07:25:18;;;;;;;29.95;17.92;;;;;;;-3.74;66.32;97707.53;6300360;22;20242;-90
2024/01/21 07:27:47;;;;;;;27.50;16.75;;;;;;;-3.75;66.28;97705.84;6300209;22;20008;-88
2024/01/21 07:30:15;;;;;;;28.90;17.80;;;;;;;-3.76;66.51;97713.56;6300260;22;20075;-88
2024/01/21 07:32:44;;;;;;;29.45;16.67;;;;;;;-3.78;66.06;97715.38;6299249;22;20023;-88
2024/01/21 07:35:13;;;;;;;28.67;16.98;;;;;;;-3.81;66.37;97712.94;6300104;22;20019;-87
2024/01/21 07:37:42;;;;;;;27.67;16.45;;;;;;;-3.82;66.56;97713.84;6297865;22;20045;-87
2024/01/21 07:40:11;;;;;;;31.92;17.95;;;;;;;-3.82;66.35;97724.03;6296651;22;20020;-87
2024/01/21 07:42:39;;;;;;;32.13;19.23;;;;;;;-3.85;66.05;97724.97;6298315;22;20023;-87
2024/01/21 07:45:09;;;;;;;31.33;17.75;;;;;;;-3.89;65.95;97718.38;6298902;22;20019;-88
2024/01/21 07:47:37;;;;;;;27.00;16.35;;;;;;;-3.89;65.80;97713.28;6301067;22;20071;-89
2024/01/21 07:50:07;;;;;;;29.70;17.95;;;;;;;-3.88;66.36;97709.81;6299738;22;20019;-88
2024/01/21 07:52:36;;;;;;;28.35;17.45;;;;;;;-3.88;66.34;97714.91;6298923;22;20016;-88
2024/01/21 07:55:05;;;;;;;30.00;17.42;;;;;;;-3.85;66.23;97716.50;6299764;22;20019;-87
2024/01/21 07:57:33;;;;;;;31.25;18.70;;;;;;;-3.83;66.19;97718.09;6300069;22;20488;-87
2024/01/21 08:00:03;;;;;;;26.17;15.90;;;;;;;-3.85;66.14;97712.22;6299784;22;20022;-89
2024/01/21 08:02:31;;;;;;;30.90;18.15;;;;;;;-3.83;66.40;97723.19;6297815;22;20015;-89
2024/01/21 08:04:59;;;;;;;26.98;16.35;;;;;;;-3.84;66.63;97715.63;6298219;22;20066;-88
2024/01/21 08:07:28;;;;;;;29.50;16.65;;;;;;;-3.80;66.84;97722.25;6297792;22;20081;-86
2024/01/21 08:10:03;;;;;;;31.77;18.83;;;;;;;-3.78;66.50;97716.19;6298797;22;20000;-89
2024/01/21 08:12:33;;;;;;;29.38;16.88;;;;;;;-3.74;66.27;97727.94;6299269;22;20019;-90
2024/01/21 08:15:02;;;;;;;27.58;16.80;;;;;;;-3.72;66.37;97735.50;6300112;22;20007;-88
2024/01/21 08:17:31;;;;;;;25.80;16.75;;;;;;;-3.70;66.56;97732.88;6299295;22;20030;-89
2024/01/21 08:19:59;;;;;;;26.88;16.42;;;;;;;-3.70;66.03;97735.44;6299820;22;20029;-88
2024/01/21 08:22:27;;;;;;;26.27;17.17;;;;;;;-3.67;65.85;97736.13;6298573;22;20015;-90
2024/01/21 08:24:56;;;;;;;29.75;17.65;;;;;;;-3.62;65.60;97733.38;6299772;22;20020;-88
2024/01/21 08:27:26;;;;;;;26.98;15.95;;;;;;;-3.58;66.00;97727.28;6299567;22;20026;-88
2024/01/21 08:29:54;;;;;;;29.25;18.27;;;;;;;-3.55;65.85;97729.66;6299807;22;20020;-87
2024/01/21 08:32:22;;;;;;;26.67;16.15;;;;;;;-3.55;65.60;97724.56;6298989;22;20050;-87
2024/01/21 08:34:51;;;;;;;27.50;17.73;;;;;;;-3.53;65.51;97725.34;6299185;22;20019;-87
2024/01/21 08:37:20;;;;;;;27.75;16.48;;;;;;;-3.49;65.54;97721.75;6298211;22;20039;-87
2024/01/21 08:39:49;;;;;;;28.45;18.00;;;;;;;-3.47;65.69;97714.03;6296311;22;20020;-87
2024/01/21 08:42:19;;;;;;;35.42;20.48;;;;;;;-3.45;64.96;97718.19;6295982;22;20066;-88
2024/01/21 08:44:49;;;;;;;30.60;18.70;;;;;;;-3.43;65.39;97708.75;6298162;22;20020;-88
2024/01/21 08:47:19;;;;;;;27.60;16.85;;;;;;;-3.41;65.35;97717.16;6298847;22;20071;-86
2024/01/21 08:49:48;;;;;;;25.73;16.20;;;;;;;-3.35;65.73;97718.59;6298076;22;20016;-89
2024/01/21 08:52:16;;;;;;;27.02;17.27;;;;;;;-3.28;65.62;97721.69;6298132;22;20039;-88
2024/01/21 08:54:48;;;;;;;25.50;17.30;;;;;;;-3.21;65.33;97716.25;6298540;22;20020;-89
2024/01/21 08:57:16;;;;;;;26.00;15.85;;;;;;;-3.12;65.83;97725.22;6298540;22;20026;-88
2024/01/21 08:59:45;;;;;;;25.30;15.68;;;;;;;-3.05;65.54;97729.16;6298393;22;20027;-86
2024/01/21 09:02:16;;;;;;;25.83;16.23;;;;;;;-2.96;65.47;97736.38;6297712;22;20011;-89
2024/01/21 09:04:45;;;;;;;30.02;16.80;;;;;;;-2.86;65.61;97741.91;6297701;22;20062;-91
2024/01/21 09:07:14;;;;;;;30.42;17.08;;;;;;;-2.76;65.79;97750.78;6302592;22;20003;-90
2024/01/21 09:09:44;;;;;;;29.73;16.92;;;;;;;-2.69;65.45;97753.88;6301646;22;20267;-87
2024/01/21 09:12:16;;;;;;;23.67;16.95;;;;;;;-2.61;65.01;97764.59;6301625;22;20019;-90
2024/01/21 09:14:45;;;;;;;32.00;16.48;;;;;;;-2.52;65.00;97766.69;6302982;22;20016;-89
2024/01/21 09:17:18;;;;;;;25.60;15.95;;;;;;;-2.43;64.52;97764.63;6296050;22;20290;-86
2024/01/21 09:19:48;;;;;;;27.05;16.75;;;;;;;-2.34;64.65;97754.81;6295715;22;20067;-87
2024/01/21 09:22:21;;;;;;;28.60;17.23;;;;;;;-2.23;64.54;97756.00;6294970;22;20022;-87
2024/01/21 09:24:52;;;;;;;21.85;14.63;;;;;;;-2.12;64.00;97764.84;6297361;22;20030;-88
2024/01/21 09:27:23;;;;;;;27.00;14.98;;;;;;;-2.01;64.29;97759.19;6300644;22;20022;-87
2024/01/21 09:29:58;;;;;;;24.23;16.05;;;;;;;-1.88;63.95;97759.41;6291902;22;20102;-88
2024/01/21 09:32:31;;;;;;;24.67;15.25;;;;;;;-1.76;63.02;97761.34;6294634;22;20091;-87
2024/01/21 09:35:04;;;;;;;24.13;15.52;;;;;;;-1.68;63.46;97754.13;6294581;22;20204;-87
2024/01/21 09:37:35;;;;;;;25.80;15.98;;;;;;;-1.55;63.19;97758.59;6293875;22;20015;-87
2024/01/21 09:40:07;;;;;;;24.83;15.82;;;;;;;-1.44;62.84;97761.47;6294795;22;20020;-88
2024/01/21 09:42:37;;;;;;;22.67;15.02;;;;;;;-1.35;62.62;97771.22;6295149;22;20042;-88
2024/01/21 09:45:09;;;;;;;26.35;14.65;;;;;;;-1.27;62.68;97769.13;6295223;22;20024;-88
2024/01/21 09:47:52;;;;;;;23.67;14.43;;;;;;;-1.16;61.94;97773.69;6296445;22;20031;-88
2024/01/21 09:50:25;;;;;;;22.58;14.90;;;;;;;-1.07;62.49;97769.81;6297198;22;20054;-87
2024/01/21 09:52:58;;;;;;;24.85;14.70;;;;;;;-0.94;62.23;97778.50;6296875;22;20016;-87
2024/01/21 09:55:32;;;;;;;23.42;13.98;;;;;;;-0.82;62.38;97784.69;6298902;22;20019;-87
2024/01/21 09:58:17;;;;;;;22.85;14.07;;;;;;;-0.72;61.68;97769.66;6299607;22;20024;-90
2024/01/21 10:00:59;;;;;;;21.67;12.95;;;;;;;-0.62;62.08;97765.69;6299008;22;20054;-90
2024/01/21 10:03:37;;;;;;;23.95;14.52;;;;;;;-0.54;61.68;97767.84;6301403;22;20020;-87
2024/01/21 10:06:38;;;;;;;25.95;13.65;;;;;;;-0.47;61.95;97767.41;6278003;22;20020;-87
2024/01/21 10:09:17;;;;;;;22.95;13.85;;;;;;;-0.44;61.21;97774.94;6301534;22;20069;-87
2024/01/21 10:11:57;;;;;;;22.65;15.05;;;;;;;-0.43;61.26;97776.59;6301665;22;20071;-87
2024/01/21 10:14:37;;;;;;;25.27;14.38;;;;;;;-0.42;61.72;97770.56;6300562;22;20023;-88
2024/01/21 10:17:08;;;;;;;20.58;13.85;;;;;;;-0.42;61.58;97762.88;6301995;22;20020;-87
2024/01/21 10:22:34;;;;;;;19.05;13.15;;;;;;;-0.42;61.77;97757.75;6301692;22;20026;-89
2024/01/21 10:25:21;;;;;;;21.58;12.23;;;;;;;-0.40;61.33;97756.81;6302566;22;20003;-89
2024/01/21 10:28:01;;;;;;;23.33;13.93;;;;;;;-0.38;61.79;97757.56;6301560;22;20020;-88
2024/01/21 10:33:17;;;;;;;18.83;12.48;;;;;;;-0.31;61.93;97751.19;6323828;22;20014;-91
2024/01/21 10:36:09;;;;;;;21.10;13.10;;;;;;;-0.30;61.38;97745.97;6303278;22;20016;-92
2024/01/21 10:38:53;;;;;;;21.45;14.05;;;;;;;-0.27;62.41;97750.91;6300212;22;20066;-92
2024/01/21 10:41:35;;;;;;;22.38;13.60;;;;;;;-0.25;61.97;97749.09;6297767;22;20027;-91
2024/01/21 10:44:12;;;;;;;21.45;13.60;;;;;;;-0.24;62.32;97739.66;6292839;22;20024;-92
2024/01/21 10:46:48;;;;;;;19.60;12.55;;;;;;;-0.22;62.60;97740.41;6294956;22;20030;-92
2024/01/21 10:49:28;;;;;;;18.10;12.50;;;;;;;-0.17;62.53;97751.25;6294787;22;20033;-90
2024/01/21 11:01:10;;;;;;;26.90;13.00;;;;;;;0.13;61.96;97753.81;6300925;22;20030;-90
2024/01/21 11:07:22;;;;;;;18.75;13.05;;;;;;;0.28;61.68;97761.50;6302303;22;20059;-88
2024/01/21 11:10:24;;;;;;;20.27;12.57;;;;;;;0.34;61.20;97782.50;6294057;22;20011;-92
2024/01/21 17:29:48;;;;;;;15.93;9.98;;;;;;;1.85;60.97;97760.50;6288490;22;20069;-83
2024/01/21 17:32:16;;;;;;;15.40;10.32;;;;;;;1.86;61.13;97757.00;6322999;22;20086;-82
2024/01/21 17:34:46;;;;;;;16.08;9.63;;;;;;;1.89;61.01;97764.53;6294596;22;20094;-83
2024/01/21 17:37:31;;;;;;;14.73;9.80;;;;;;;1.92;61.02;97773.78;6264257;23;20044;-83
2024/01/21 17:40:34;;;;;;;15.52;10.00;;;;;;;1.94;61.04;97767.63;6240124;23;20031;-83
2024/01/21 17:43:18;;;;;;;17.20;10.23;;;;;;;1.93;60.94;97755.69;6262699;22;20063;-83
2024/01/21 17:45:48;;;;;;;18.48;10.98;;;;;;;1.93;60.85;97765.97;6256841;23;20070;-83
2024/01/21 17:48:16;;;;;;;15.85;10.63;;;;;;;1.93;60.96;97754.88;6258590;23;20020;-82
2024/01/21 17:50:45;;;;;;;15.45;10.18;;;;;;;1.93;60.96;97760.00;6257496;23;20484;-83
2024/01/21 17:53:16;;;;;;;15.50;10.35;;;;;;;1.92;61.02;97771.22;6249544;22;20027;-82
2024/01/21 17:55:43;;;;;;;15.85;10.65;;;;;;;1.90;61.06;97766.16;6247128;23;20025;-82
2024/01/21 17:58:12;;;;;;;15.63;10.05;;;;;;;1.92;61.30;97768.63;6246903;23;20085;-83
2024/01/21 18:00:40;;;;;;;14.50;9.82;;;;;;;1.91;61.08;97767.81;6251628;23;20028;-82
2024/01/21 18:03:10;;;;;;;13.95;9.73;;;;;;;1.91;60.79;97762.69;6255084;22;20020;-83
2024/01/21 18:05:39;;;;;;;14.80;9.73;;;;;;;1.90;60.60;97761.00;6260010;23;20450;-83
2024/01/21 18:08:07;;;;;;;16.17;10.02;;;;;;;1.91;60.64;97767.81;6253235;23;20093;-83